Time;durP1;ratioP1;P1;durP2;ratioP2;P2;SDS_P1;SDS_P2;PMS_P1;PMS_P2;Temp;Humidity;BMP_temperature;BMP_pressure;BME280_temperature;BME280_humidity;BME280_pressure;Samples;Min_cycle;Max_cycle;Signal;HPM_P1;HPM_P2
2023/02/21 02:14:12;;;;;;;3.80;2.00;;;6.60;99.90;;;;;;5003242;28;20052;-69
2023/02/21 02:17:05;;;;;;;4.72;2.13;;;6.50;99.90;;;;;;4992175;28;20037;-69
2023/02/21 02:20:09;;;;;;;3.50;1.95;;;6.30;99.90;;;;;;5010158;28;20054;-69
2023/02/21 02:23:30;;;;;;;7.65;2.20;;;6.40;99.90;;;;;;5013651;28;20041;-69
2023/02/21 02:26:38;;;;;;;5.28;2.08;;;6.40;99.90;;;;;;5026459;28;20065;-69
2023/02/21 02:29:43;;;;;;;3.90;2.10;;;6.30;99.90;;;;;;5007902;28;20453;-69
2023/02/21 02:33:02;;;;;;;7.97;3.17;;;6.30;99.90;;;;;;5015534;28;20088;-69
2023/02/21 02:35:34;;;;;;;3.85;1.80;;;6.30;99.90;;;;;;4988635;28;20382;-69
2023/02/21 02:38:23;;;;;;;2.97;1.88;;;6.30;99.90;;;;;;5012166;28;20128;-68
2023/02/21 02:41:22;;;;;;;3.97;2.33;;;6.30;99.90;;;;;;5006946;28;20030;-69
2023/02/21 02:44:18;;;;;;;6.60;2.55;;;6.40;99.90;;;;;;5004010;28;20045;-69
2023/02/21 02:46:46;;;;;;;4.72;2.03;;;6.50;99.90;;;;;;4992298;28;20099;-69
2023/02/21 02:49:23;;;;;;;4.88;1.70;;;6.50;99.90;;;;;;5005843;28;20022;-69
2023/02/21 02:51:50;;;;;;;7.45;2.30;;;6.50;99.90;;;;;;5012826;28;20501;-69
2023/02/21 02:54:16;;;;;;;4.25;2.40;;;6.50;99.90;;;;;;5006980;28;20049;-69
2023/02/21 02:56:42;;;;;;;5.78;2.25;;;6.50;99.90;;;;;;5031331;28;20061;-69
2023/02/21 02:59:19;;;;;;;5.03;2.55;;;6.50;99.90;;;;;;5005505;28;20033;-69
2023/02/21 03:01:58;;;;;;;5.18;2.13;;;6.50;99.90;;;;;;5013683;28;20382;-69
2023/02/21 03:04:53;;;;;;;3.78;1.88;;;6.50;99.90;;;;;;5013882;28;20030;-70
2023/02/21 03:08:13;;;;;;;2.85;1.83;;;6.40;99.90;;;;;;5014787;28;20029;-69
2023/02/21 03:10:44;;;;;;;8.48;2.08;;;6.30;99.90;;;;;;5005592;28;20044;-69
2023/02/21 03:13:38;;;;;;;;;;;6.10;99.90;;;;;;4993432;28;20033;-70
2023/02/21 03:16:27;;;;;;;11.02;2.22;;;6.10;99.90;;;;;;5000038;28;19957;-69
2023/02/21 03:19:11;;;;;;;4.68;2.20;;;6.10;99.90;;;;;;5004532;28;20037;-69
2023/02/21 03:21:53;;;;;;;8.05;2.65;;;6.10;99.90;;;;;;5015180;28;20029;-69
2023/02/21 03:24:22;;;;;;;5.47;2.70;;;6.10;99.90;;;;;;4996265;28;20037;-69
2023/02/21 03:26:55;;;;;;;6.30;2.45;;;6.00;99.90;;;;;;4993827;28;20541;-69
2023/02/21 03:29:21;;;;;;;2.70;1.83;;;6.00;99.90;;;;;;4995722;28;20029;-69
2023/02/21 03:31:55;;;;;;;5.43;2.75;;;6.00;99.90;;;;;;4993515;28;20438;-69
2023/02/21 03:34:21;;;;;;;8.90;3.05;;;6.00;99.90;;;;;;5012992;28;20398;-69
2023/02/21 03:36:48;;;;;;;8.63;2.67;;;5.90;99.90;;;;;;4992883;28;20104;-69
2023/02/21 03:39:14;;;;;;;5.93;2.22;;;5.80;99.90;;;;;;5005016;28;20025;-69
2023/02/21 03:41:39;;;;;;;3.88;2.03;;;5.90;99.90;;;;;;5030778;28;20025;-69
2023/02/21 03:44:05;;;;;;;8.32;2.58;;;5.90;99.90;;;;;;5020901;28;20045;-69
2023/02/21 03:46:31;;;;;;;12.30;3.15;;;5.80;99.90;;;;;;5032040;28;20044;-69
2023/02/21 03:48:57;;;;;;;6.55;2.13;;;5.80;99.90;;;;;;5007731;28;20559;-70
2023/02/21 03:51:22;;;;;;;5.90;2.72;;;5.80;99.90;;;;;;4995682;28;20493;-69
2023/02/21 03:53:48;;;;;;;6.28;2.20;;;5.80;99.90;;;;;;5007573;28;20033;-69
2023/02/21 03:56:14;;;;;;;3.55;2.08;;;5.70;99.90;;;;;;5011830;28;20397;-69
2023/02/21 03:58:40;;;;;;;7.32;3.10;;;5.80;99.90;;;;;;5014609;28;20171;-69
2023/02/21 04:01:05;;;;;;;3.88;1.98;;;5.70;99.90;;;;;;5029709;28;20036;-69
2023/02/21 04:03:31;;;;;;;4.50;2.20;;;5.60;99.90;;;;;;5001659;28;20037;-69
2023/02/21 04:05:57;;;;;;;4.65;2.33;;;5.50;99.90;;;;;;5000197;28;20057;-69
2023/02/21 04:08:22;;;;;;;4.78;2.15;;;5.50;99.90;;;;;;4994582;28;20025;-69
2023/02/21 04:10:48;;;;;;;3.90;1.80;;;5.40;99.90;;;;;;5023324;28;20497;-70
2023/02/21 04:13:14;;;;;;;8.45;2.00;;;5.30;99.90;;;;;;5013982;28;20481;-69
2023/02/21 04:15:39;;;;;;;8.05;2.08;;;5.30;99.90;;;;;;5014603;28;20105;-69
2023/02/21 04:18:05;;;;;;;6.80;3.17;;;5.30;99.90;;;;;;5014035;28;20045;-69
2023/02/21 04:20:31;;;;;;;4.78;2.25;;;5.30;99.90;;;;;;5007047;28;20489;-69
2023/02/21 04:22:57;;;;;;;6.80;2.35;;;5.30;99.90;;;;;;5030898;28;20414;-69
2023/02/21 04:25:23;;;;;;;8.32;3.20;;;5.20;99.90;;;;;;5013421;28;20033;-69
2023/02/21 04:27:48;;;;;;;8.40;3.08;;;5.30;99.90;;;;;;5025051;28;20034;-70
2023/02/21 04:30:14;;;;;;;5.13;1.98;;;5.30;99.90;;;;;;5022504;28;20094;-69
2023/02/21 04:32:40;;;;;;;5.47;2.83;;;5.20;99.90;;;;;;5025105;28;20033;-69
2023/02/21 04:35:06;;;;;;;8.30;2.65;;;5.20;99.90;;;;;;5022616;28;20072;-69
2023/02/21 04:37:31;;;;;;;16.75;2.95;;;5.30;99.90;;;;;;5017551;28;20485;-69
2023/02/21 04:39:57;;;;;;;13.32;3.42;;;5.30;99.90;;;;;;5004568;28;20057;-69
2023/02/21 04:42:23;;;;;;;5.82;2.63;;;5.20;99.90;;;;;;5019154;28;20397;-69
2023/02/21 04:44:49;;;;;;;12.93;2.78;;;5.20;99.90;;;;;;5022357;28;20029;-69
2023/02/21 04:47:15;;;;;;;4.25;2.53;;;5.20;99.90;;;;;;5019098;28;20030;-69
2023/02/21 04:49:40;;;;;;;4.70;2.67;;;5.20;99.90;;;;;;5021223;28;20080;-69
2023/02/21 04:52:06;;;;;;;5.15;2.08;;;5.20;99.90;;;;;;5028780;23;20046;-68
2023/02/21 04:54:32;;;;;;;5.28;2.50;;;5.20;99.90;;;;;;5011492;28;20083;-68
2023/02/21 04:56:58;;;;;;;6.45;3.38;;;5.20;99.90;;;;;;5016786;28;20041;-69
2023/02/21 04:59:23;;;;;;;10.85;3.60;;;5.20;99.90;;;;;;5022730;28;20034;-68
2023/02/21 05:01:49;;;;;;;3.50;1.92;;;5.20;99.90;;;;;;5036831;28;20032;-68
2023/02/21 05:04:15;;;;;;;8.20;3.83;;;5.20;99.90;;;;;;5041811;28;20017;-68
2023/02/21 05:06:40;;;;;;;6.25;3.33;;;5.20;99.90;;;;;;5046014;28;20064;-68
2023/02/21 05:09:06;;;;;;;4.55;2.90;;;5.20;99.90;;;;;;5041580;28;20037;-68
2023/02/21 05:11:34;;;;;;;9.68;2.17;;;5.20;99.90;;;;;;5030721;28;20060;-68
2023/02/21 05:14:00;;;;;;;4.75;2.50;;;5.20;99.90;;;;;;5042010;28;20033;-68
2023/02/21 05:16:26;;;;;;;4.10;2.35;;;5.20;99.90;;;;;;5018467;28;20428;-68
2023/02/21 05:18:51;;;;;;;4.35;2.58;;;5.20;99.90;;;;;;5041559;28;20037;-68
2023/02/21 05:21:18;;;;;;;9.07;4.07;;;5.20;99.90;;;;;;5046768;28;20131;-68
2023/02/21 05:23:57;;;;;;;4.15;2.67;;;5.10;99.90;;;;;;5024096;28;20025;-68
2023/02/21 05:26:28;;;;;;;6.22;2.33;;;5.10;99.90;;;;;;5045886;28;20033;-68
2023/02/21 05:28:54;;;;;;;;;;;5.10;99.90;;;;;;5041766;28;20532;-68
2023/02/21 05:31:20;;;;;;;4.43;2.70;;;5.00;99.90;;;;;;5029157;28;19917;-68
2023/02/21 05:33:46;;;;;;;4.57;2.50;;;5.00;99.90;;;;;;4995213;28;20050;-68
2023/02/21 05:36:12;;;;;;;12.93;5.60;;;5.00;99.90;;;;;;5023715;28;20072;-68
2023/02/21 05:38:49;;;;;;;13.90;5.00;;;5.00;99.90;;;;;;5031788;28;20046;-69
2023/02/21 05:41:16;;;;;;;6.75;3.45;;;5.10;99.90;;;;;;5007652;28;20025;-68
2023/02/21 05:43:47;;;;;;;6.03;2.88;;;5.10;99.90;;;;;;5025735;28;20084;-67
2023/02/21 05:46:33;;;;;;;5.35;2.60;;;5.00;99.90;;;;;;5010536;28;20026;-68
2023/02/21 05:49:02;;;;;;;5.65;2.88;;;4.90;99.90;;;;;;5010891;28;20488;-68
2023/02/21 05:51:36;;;;;;;8.70;3.22;;;4.90;99.90;;;;;;5006869;28;20037;-69
2023/02/21 05:54:02;;;;;;;14.07;3.53;;;4.90;99.90;;;;;;5007648;28;20037;-69
2023/02/21 05:56:27;;;;;;;9.77;3.17;;;4.80;99.90;;;;;;5029614;28;20481;-68
2023/02/21 05:58:53;;;;;;;9.50;2.58;;;4.90;99.90;;;;;;5023820;28;20153;-68
2023/02/21 06:01:19;;;;;;;4.53;3.13;;;4.80;99.90;;;;;;5032408;28;20090;-68
2023/02/21 06:03:44;;;;;;;7.93;3.28;;;4.50;99.90;;;;;;5028520;28;20033;-68
2023/02/21 06:06:10;;;;;;;4.40;2.35;;;4.50;99.90;;;;;;5030876;28;20030;-68
2023/02/21 06:08:47;;;;;;;6.28;2.97;;;4.60;99.90;;;;;;5030935;28;20087;-69
2023/02/21 06:11:14;;;;;;;3.85;2.63;;;4.60;99.90;;;;;;5014385;28;20088;-70
2023/02/21 06:13:40;;;;;;;5.28;1.98;;;4.50;99.90;;;;;;5029562;28;20374;-69
2023/02/21 06:16:07;;;;;;;4.97;2.58;;;4.60;99.90;;;;;;5030372;28;20385;-69
2023/02/21 06:18:33;;;;;;;5.88;2.50;;;4.70;99.90;;;;;;5012945;28;20021;-69
2023/02/21 06:20:58;;;;;;;9.80;3.10;;;4.70;99.90;;;;;;5031798;28;20478;-69
2023/02/21 06:23:24;;;;;;;7.63;3.15;;;4.70;99.90;;;;;;5031146;28;20026;-69
2023/02/21 06:25:50;;;;;;;5.35;2.70;;;4.70;99.90;;;;;;5031794;28;20061;-68
2023/02/21 06:28:16;;;;;;;4.13;2.60;;;4.80;99.90;;;;;;5013358;28;20083;-68
2023/02/21 06:30:42;;;;;;;7.10;2.92;;;4.80;99.90;;;;;;5028306;28;20060;-68
2023/02/21 06:33:08;;;;;;;13.57;3.55;;;4.90;99.90;;;;;;5030860;28;20462;-68
2023/02/21 06:35:33;;;;;;;11.50;3.42;;;4.90;99.90;;;;;;5008393;28;20022;-71
2023/02/21 06:37:59;;;;;;;6.95;3.00;;;4.90;99.90;;;;;;5029378;28;20042;-71
2023/02/21 06:40:25;;;;;;;5.93;3.17;;;4.90;99.90;;;;;;5032077;28;20021;-71
2023/02/21 06:42:50;;;;;;;6.82;2.97;;;4.90;99.90;;;;;;5029549;28;20504;-71
2023/02/21 06:45:16;;;;;;;5.82;3.53;;;4.90;99.90;;;;;;5028590;28;20025;-73
2023/02/21 06:47:42;;;;;;;5.07;3.08;;;4.90;99.90;;;;;;5027992;28;20051;-68
2023/02/21 06:50:08;;;;;;;6.10;3.42;;;4.90;99.90;;;;;;5014483;28;20531;-70
2023/02/21 06:52:33;;;;;;;6.53;3.80;;;5.00;99.90;;;;;;5027000;28;20040;-68
2023/02/21 06:54:59;;;;;;;8.35;3.85;;;4.90;99.90;;;;;;5025586;28;20042;-69
2023/02/21 06:57:25;;;;;;;4.40;2.60;;;5.00;99.90;;;;;;5018923;28;20477;-71
2023/02/21 06:59:50;;;;;;;11.25;5.25;;;5.00;99.90;;;;;;5010583;28;20073;-71
2023/02/21 07:02:19;;;;;;;4.07;3.13;;;5.00;99.90;;;;;;5033485;28;20098;-69
2023/02/21 07:04:46;;;;;;;6.95;3.60;;;5.10;99.90;;;;;;5005071;28;20034;-70
2023/02/21 07:07:12;;;;;;;7.47;3.00;;;5.10;99.90;;;;;;5014023;28;20033;-69
2023/02/21 07:09:38;;;;;;;10.68;3.83;;;5.10;99.90;;;;;;5007281;28;20030;-71
2023/02/21 07:12:04;;;;;;;5.88;3.35;;;5.10;99.90;;;;;;5025291;28;20446;-70
2023/02/21 07:14:30;;;;;;;6.68;3.28;;;5.10;99.90;;;;;;5019593;28;20091;-71
2023/02/21 07:16:55;;;;;;;4.35;2.92;;;5.20;99.90;;;;;;5015791;28;20088;-71
2023/02/21 07:19:21;;;;;;;5.68;3.45;;;5.20;99.90;;;;;;5019425;28;20028;-71
2023/02/21 07:21:47;;;;;;;10.13;4.40;;;5.30;99.90;;;;;;5013783;28;20109;-70
2023/02/21 07:24:13;;;;;;;9.20;3.90;;;5.30;99.90;;;;;;5026901;28;20024;-71
2023/02/21 07:26:39;;;;;;;6.07;3.38;;;5.30;99.90;;;;;;5014054;28;20448;-68
2023/02/21 07:29:05;;;;;;;8.38;3.63;;;5.40;99.90;;;;;;5026668;28;20080;-69
2023/02/21 07:31:32;;;;;;;10.82;2.75;;;5.40;99.90;;;;;;5010644;28;20489;-68
2023/02/21 07:33:58;;;;;;;10.43;5.18;;;5.50;99.90;;;;;;5008445;28;20060;-69
2023/02/21 07:36:23;;;;;;;11.25;4.28;;;5.60;99.90;;;;;;5031184;28;20072;-69
2023/02/21 07:38:49;;;;;;;11.73;3.55;;;5.60;99.90;;;;;;5016171;28;20061;-69
2023/02/21 07:41:17;;;;;;;8.35;3.53;;;5.70;99.90;;;;;;5026488;28;20040;-68
2023/02/21 07:43:43;;;;;;;11.52;4.07;;;5.80;99.90;;;;;;5023924;28;20018;-68
2023/02/21 07:46:14;;;;;;;7.22;4.10;;;5.80;99.90;;;;;;5028414;28;20026;-68
2023/02/21 07:48:40;;;;;;;10.07;3.53;;;5.90;99.90;;;;;;5026689;28;20444;-68
2023/02/21 07:51:07;;;;;;;5.15;2.65;;;5.90;99.90;;;;;;5027490;28;20029;-70
2023/02/21 07:53:33;;;;;;;8.93;4.00;;;6.10;99.90;;;;;;5028293;28;20021;-69
2023/02/21 07:55:59;;;;;;;6.82;3.72;;;6.10;99.90;;;;;;5011602;28;20035;-69
2023/02/21 07:58:25;;;;;;;9.65;4.53;;;6.20;99.90;;;;;;5028988;28;20113;-70
2023/02/21 08:00:51;;;;;;;9.50;3.92;;;6.30;99.90;;;;;;5031498;28;20025;-69
2023/02/21 08:03:17;;;;;;;7.55;3.65;;;6.30;99.90;;;;;;5002575;28;20024;-69
2023/02/21 08:05:44;;;;;;;8.93;4.25;;;6.40;99.90;;;;;;5009730;28;20026;-69
2023/02/21 08:08:11;;;;;;;11.65;5.38;;;6.50;99.90;;;;;;5035701;28;20079;-69
2023/02/21 08:10:37;;;;;;;17.70;4.72;;;6.50;99.90;;;;;;5029676;28;20035;-69
2023/02/21 08:13:04;;;;;;;15.43;3.90;;;6.70;99.90;;;;;;5020450;28;20090;-70
2023/02/21 08:15:30;;;;;;;9.43;3.53;;;6.70;99.90;;;;;;5009899;28;20026;-69
2023/02/21 08:17:56;;;;;;;7.20;3.40;;;6.80;99.90;;;;;;5026813;28;20068;-69
2023/02/21 08:20:21;;;;;;;11.48;4.50;;;6.90;99.90;;;;;;5027288;28;20032;-69
2023/02/21 08:22:47;;;;;;;9.63;4.60;;;7.00;99.90;;;;;;5026503;28;20030;-70
2023/02/21 08:25:15;;;;;;;14.48;3.95;;;7.10;99.90;;;;;;5022111;28;20033;-69
2023/02/21 08:27:42;;;;;;;37.60;6.28;;;7.30;99.90;;;;;;5039959;28;20048;-69
2023/02/21 08:30:11;;;;;;;20.27;4.63;;;7.30;99.90;;;;;;5014174;28;20040;-69
2023/02/21 08:32:37;;;;;;;9.55;4.30;;;7.40;99.90;;;;;;5007818;28;20052;-69
2023/02/21 08:35:05;;;;;;;7.93;4.45;;;7.40;99.90;;;;;;5025121;28;20041;-68
2023/02/21 08:37:35;;;;;;;16.02;3.80;;;7.50;99.90;;;;;;5007851;28;20021;-69
2023/02/21 08:40:01;;;;;;;9.88;3.78;;;7.50;99.90;;;;;;5013105;28;20030;-69
2023/02/21 08:42:27;;;;;;;7.00;3.25;;;7.60;99.90;;;;;;5035142;28;20040;-71
2023/02/21 08:44:53;;;;;;;13.00;4.38;;;7.60;99.90;;;;;;5028443;28;20041;-70
2023/02/21 08:47:19;;;;;;;8.68;4.40;;;7.70;99.90;;;;;;5030050;28;20022;-69
2023/02/21 08:49:48;;;;;;;9.35;4.60;;;7.80;99.90;;;;;;5025229;28;20041;-72
2023/02/21 08:52:16;;;;;;;8.40;4.28;;;7.80;99.90;;;;;;5026161;28;20042;-72
2023/02/21 08:54:43;;;;;;;7.55;3.70;;;7.90;99.90;;;;;;5025231;28;20037;-71
2023/02/21 08:57:10;;;;;;;9.13;4.15;;;8.00;99.90;;;;;;5011232;28;20525;-71
2023/02/21 08:59:41;;;;;;;8.48;4.82;;;8.00;99.90;;;;;;5009309;28;20037;-71
2023/02/21 09:02:17;;;;;;;;;;;8.10;99.90;;;;;;5026464;28;20481;-72
2023/02/21 09:04:44;;;;;;;9.35;4.07;;;8.10;99.90;;;;;;5025432;28;19908;-70
2023/02/21 09:07:16;;;;;;;5.10;2.72;;;8.20;99.90;;;;;;5029819;28;20477;-70
2023/02/21 09:09:41;;;;;;;11.02;4.80;;;8.30;99.90;;;;;;5028475;28;20038;-70
2023/02/21 09:12:08;;;;;;;11.38;3.60;;;8.50;99.90;;;;;;5026922;28;20052;-69
2023/02/21 09:14:39;;;;;;;7.28;3.30;;;8.40;99.90;;;;;;5025305;28;20021;-69
2023/02/21 09:17:09;;;;;;;16.05;6.07;;;8.50;99.90;;;;;;5010593;28;20038;-69
2023/02/21 09:19:35;;;;;;;10.65;5.78;;;8.60;99.90;;;;;;5024965;28;20034;-69
2023/02/21 09:22:03;;;;;;;7.32;3.97;;;8.70;99.90;;;;;;5010443;28;20041;-69
2023/02/21 09:24:29;;;;;;;13.23;5.13;;;8.80;99.90;;;;;;5025069;28;20053;-69
2023/02/21 09:26:57;;;;;;;16.15;5.72;;;8.90;99.90;;;;;;5027317;28;20063;-69
2023/02/21 09:29:28;;;;;;;10.23;3.83;;;9.10;99.90;;;;;;5024654;28;20114;-69
2023/02/21 09:31:54;;;;;;;10.02;4.15;;;9.30;99.90;;;;;;5026857;28;20037;-70
2023/02/21 09:34:21;;;;;;;8.45;3.63;;;9.40;99.90;;;;;;5012334;28;20044;-69
2023/02/21 09:36:49;;;;;;;12.70;4.63;;;9.50;99.90;;;;;;5030984;28;20037;-70
2023/02/21 09:39:17;;;;;;;9.07;3.55;;;9.50;99.90;;;;;;5013560;28;20032;-63
2023/02/21 09:41:43;;;;;;;9.60;4.20;;;9.60;99.90;;;;;;5012223;28;20033;-65
2023/02/21 09:44:16;;;;;;;10.95;3.95;;;9.70;99.90;;;;;;5027546;28;20037;-63
2023/02/21 09:47:13;;;;;;;7.80;4.13;;;9.90;99.90;;;;;;5030693;28;20051;-63
2023/02/21 09:49:42;;;;;;;9.13;3.50;;;10.20;99.90;;;;;;5006473;28;20140;-71
2023/02/21 09:52:29;;;;;;;9.65;5.15;;;10.20;99.90;;;;;;5014465;28;20395;-72
2023/02/21 09:54:58;;;;;;;10.52;4.45;;;10.40;99.90;;;;;;5012798;28;20149;-71
2023/02/21 09:57:24;;;;;;;8.40;4.25;;;10.60;99.90;;;;;;5015377;28;20400;-72
2023/02/21 09:59:50;;;;;;;12.35;3.22;;;10.90;99.90;;;;;;4991183;28;20037;-74
2023/02/21 10:02:43;;;;;;;9.18;5.13;;;11.00;99.90;;;;;;5026338;28;20026;-74
2023/02/21 10:05:40;;;;;;;9.50;4.18;;;11.10;99.90;;;;;;5011784;28;20485;-72
2023/02/21 10:08:36;;;;;;;15.98;4.07;;;11.10;99.90;;;;;;5011328;28;20034;-74
2023/02/21 10:12:02;;;;;;;14.18;3.67;;;11.50;99.90;;;;;;5009452;28;20032;-74
2023/02/21 10:15:04;;;;;;;16.23;4.47;;;11.50;99.90;;;;;;5015448;28;20409;-73
2023/02/21 10:17:41;;;;;;;11.43;4.97;;;11.70;99.90;;;;;;5029002;28;20064;-70
2023/02/21 10:20:37;;;;;;;11.50;5.13;;;11.80;99.90;;;;;;5015327;28;20054;-70
2023/02/21 10:23:14;;;;;;;9.00;4.28;;;12.10;99.90;;;;;;5010743;28;20038;-72
2023/02/21 10:25:44;;;;;;;13.20;4.72;;;12.20;99.90;;;;;;5031280;28;20041;-71
2023/02/21 10:28:22;;;;;;;10.55;4.07;;;12.30;99.90;;;;;;5029950;28;20052;-71
2023/02/21 10:30:51;;;;;;;9.65;4.53;;;12.60;99.90;;;;;;5010195;28;20041;-72
2023/02/21 10:33:16;;;;;;;8.52;3.80;;;12.50;99.90;;;;;;5013443;28;20040;-73
2023/02/21 10:35:43;;;;;;;17.23;4.63;;;13.00;99.90;;;;;;5030883;28;20033;-75
2023/02/21 10:38:26;;;;;;;11.68;5.07;;;12.80;99.90;;;;;;5011918;28;20477;-71
2023/02/21 10:41:00;;;;;;;11.57;4.65;;;13.00;99.90;;;;;;5026816;28;20033;-71
2023/02/21 10:43:51;;;;;;;11.90;4.13;;;13.20;99.90;;;;;;5012263;28;20040;-70
2023/02/21 10:46:36;;;;;;;7.20;3.67;;;13.20;99.90;;;;;;5018215;28;20033;-70
2023/02/21 10:49:28;;;;;;;8.52;5.03;;;13.30;99.90;;;;;;5015327;28;20468;-71
2023/02/21 10:52:05;;;;;;;8.05;4.22;;;13.10;99.90;;;;;;5029271;28;20037;-71
2023/02/21 10:54:31;;;;;;;15.65;4.35;;;13.40;99.90;;;;;;5027654;28;20116;-72
2023/02/21 10:56:59;;;;;;;10.93;4.53;;;13.60;99.90;;;;;;5029733;28;20199;-72
2023/02/21 10:59:28;;;;;;;9.68;4.13;;;14.10;99.90;;;;;;5027090;28;20021;-72
2023/02/21 11:01:55;;;;;;;10.90;5.13;;;14.20;99.90;;;;;;5011739;28;20034;-72
2023/02/21 11:04:27;;;;;;;13.02;3.75;;;14.10;99.90;;;;;;5014588;28;20029;-72
2023/02/21 11:07:03;;;;;;;8.13;3.70;;;14.00;99.90;;;;;;5029511;28;20029;-72
2023/02/21 11:09:41;;;;;;;11.23;3.63;;;14.30;99.90;;;;;;5015454;28;20032;-71
2023/02/21 11:12:18;;;;;;;7.40;3.50;;;15.70;99.90;;;;;;5029408;28;20033;-72
2023/02/21 11:14:50;;;;;;;7.35;3.63;;;15.90;98.60;;;;;;5027473;28;20037;-72
2023/02/21 11:17:22;;;;;;;10.35;3.33;;;15.80;98.80;;;;;;5028899;28;20049;-70
2023/02/21 11:20:05;;;;;;;10.65;4.28;;;15.60;99.90;;;;;;5011025;28;20030;-72
2023/02/21 11:22:41;;;;;;;7.38;3.72;;;16.00;99.90;;;;;;5014911;28;20668;-71
2023/02/21 11:25:30;;;;;;;10.05;3.47;;;15.60;99.50;;;;;;5028226;28;20029;-71
2023/02/21 11:28:15;;;;;;;9.95;4.10;;;16.70;98.70;;;;;;5027984;28;20041;-71
2023/02/21 11:31:05;;;;;;;9.27;4.20;;;16.40;98.50;;;;;;5031180;28;20035;-72
2023/02/21 11:33:38;;;;;;;7.60;3.67;;;17.70;94.80;;;;;;5022631;28;20052;-70
2023/02/21 11:36:13;;;;;;;6.95;3.20;;;16.90;95.00;;;;;;5028282;28;20026;-72
2023/02/21 11:38:46;;;;;;;8.15;3.45;;;17.40;94.80;;;;;;5029248;28;20120;-75
2023/02/21 11:41:45;;;;;;;6.82;2.95;;;17.50;94.30;;;;;;5029307;28;20557;-73
2023/02/21 11:44:29;;;;;;;10.63;4.18;;;16.90;95.60;;;;;;4997349;28;20064;-72
2023/02/21 11:47:15;;;;;;;10.35;4.40;;;16.40;96.40;;;;;;5028786;28;20029;-72
2023/02/21 11:50:24;;;;;;;7.53;3.33;;;16.20;97.20;;;;;;5010258;28;20163;-71
2023/02/21 11:53:13;;;;;;;8.38;3.38;;;16.50;96.80;;;;;;5027443;28;20083;-71
2023/02/21 11:55:43;;;;;;;8.48;3.70;;;17.30;95.60;;;;;;4983012;28;20065;-70
2023/02/21 11:58:25;;;;;;;9.43;3.75;;;17.80;94.70;;;;;;5004354;28;20026;-70
2023/02/21 12:01:11;;;;;;;6.03;3.33;;;19.10;92.60;;;;;;5010059;28;20046;-71
2023/02/21 12:04:05;;;;;;;9.52;3.40;;;17.30;93.80;;;;;;5005799;28;20098;-70
2023/02/21 12:06:38;;;;;;;7.95;3.20;;;18.70;92.80;;;;;;5003868;28;20040;-70
2023/02/21 12:09:18;;;;;;;10.27;4.47;;;17.60;94.20;;;;;;5027786;28;20167;-69
2023/02/21 12:12:10;;;;;;;13.98;4.22;;;19.20;92.60;;;;;;5028254;28;20116;-69
2023/02/21 12:15:02;;;;;;;10.85;4.15;;;19.40;88.50;;;;;;5004751;28;20100;-69
2023/02/21 12:17:32;;;;;;;11.48;3.88;;;18.80;90.90;;;;;;5026461;28;20461;-68
2023/02/21 12:20:10;;;;;;;7.97;3.47;;;20.30;88.10;;;;;;5011164;28;20633;-68
2023/02/21 12:23:00;;;;;;;9.70;3.25;;;20.70;83.80;;;;;;5012976;28;20485;-70
2023/02/21 12:25:52;;;;;;;6.68;3.47;;;19.50;83.80;;;;;;5029727;28;20032;-69
2023/02/21 12:28:37;;;;;;;7.97;3.70;;;18.40;90.00;;;;;;5002874;28;20029;-70
2023/02/21 12:31:47;;;;;;;35.55;3.83;;;17.60;92.10;;;;;;5028715;28;20034;-69
2023/02/21 12:34:45;;;;;;;5.55;3.05;;;18.50;91.30;;;;;;5015634;28;20032;-69
2023/02/21 12:37:37;;;;;;;10.45;3.05;;;18.90;90.70;;;;;;4996856;28;20046;-69
2023/02/21 12:40:33;;;;;;;8.73;3.25;;;19.90;87.60;;;;;;5012038;28;20034;-71
2023/02/21 12:43:17;;;;;;;11.43;2.78;;;20.30;82.40;;;;;;5026990;28;20036;-70
2023/02/21 12:46:25;;;;;;;7.55;3.47;;;20.50;82.50;;;;;;5028459;28;20034;-70
2023/02/21 12:49:09;;;;;;;10.18;3.25;;;19.00;83.70;;;;;;5021237;28;20084;-70
2023/02/21 12:51:43;;;;;;;4.95;2.33;;;20.30;82.90;;;;;;5012442;28;20037;-71
2023/02/21 12:54:14;;;;;;;6.30;3.08;;;19.90;81.70;;;;;;5013439;28;20029;-70
2023/02/21 12:56:57;;;;;;;10.40;3.05;;;21.10;79.10;;;;;;5008626;28;20048;-71
2023/02/21 12:59:50;;;;;;;7.60;2.60;;;20.40;81.40;;;;;;5002320;28;20104;-70
2023/02/21 13:02:35;;;;;;;10.18;3.20;;;20.70;79.00;;;;;;5011950;28;20028;-70
2023/02/21 13:05:15;;;;;;;5.70;2.63;;;19.20;82.40;;;;;;5011889;28;20110;-71
2023/02/21 13:07:56;;;;;;;5.50;3.28;;;19.70;81.10;;;;;;5012442;28;20034;-70
2023/02/21 13:10:28;;;;;;;5.93;2.90;;;19.20;82.80;;;;;;5028365;28;20036;-70
2023/02/21 13:13:19;;;;;;;8.77;2.13;;;18.80;85.10;;;;;;5008134;28;20037;-71
2023/02/21 13:15:47;;;;;;;;;;;19.80;83.80;;;;;;5014696;28;20034;-71
2023/02/21 13:18:18;;;;;;;7.38;2.95;;;18.70;84.50;;;;;;5027487;28;19917;-71
2023/02/21 13:21:06;;;;;;;4.05;2.25;;;19.80;85.70;;;;;;5026892;28;20033;-70
2023/02/21 13:24:02;;;;;;;5.07;2.28;;;20.00;80.60;;;;;;5005501;28;20033;-70
2023/02/21 13:27:02;;;;;;;6.22;2.08;;;21.10;77.40;;;;;;5007005;28;20022;-70
2023/02/21 13:29:32;;;;;;;6.20;2.57;;;20.40;78.80;;;;;;5024582;28;20056;-70
2023/02/21 13:32:11;;;;;;;3.40;2.08;;;19.50;82.20;;;;;;5009354;28;20038;-70
2023/02/21 13:34:53;;;;;;;5.43;2.58;;;20.00;82.80;;;;;;5028774;28;20026;-70
2023/02/21 13:37:23;;;;;;;6.28;2.53;;;19.00;84.00;;;;;;5011139;28;20515;-70
2023/02/21 13:40:16;;;;;;;6.70;2.50;;;19.30;85.80;;;;;;5010385;28;20040;-70
2023/02/21 13:42:42;;;;;;;6.63;2.60;;;20.30;82.70;;;;;;5007177;28;20493;-71
2023/02/21 13:45:24;;;;;;;3.97;2.30;;;19.10;81.80;;;;;;5025355;28;20080;-71
2023/02/21 13:47:56;;;;;;;4.25;2.50;;;18.80;84.90;;;;;;4991207;28;20041;-72
2023/02/21 13:50:37;;;;;;;6.47;2.95;;;18.50;85.50;;;;;;5026390;28;20029;-70
2023/02/21 13:53:12;;;;;;;4.35;2.40;;;18.40;87.30;;;;;;5026776;28;20038;-70
2023/02/21 13:55:38;;;;;;;4.38;2.28;;;18.60;86.70;;;;;;5027236;28;20041;-71
2023/02/21 13:58:06;;;;;;;6.20;2.55;;;18.30;86.10;;;;;;5003203;28;20038;-70
2023/02/21 14:00:31;;;;;;;5.32;2.85;;;18.30;87.70;;;;;;5023750;28;20033;-70
2023/02/21 14:03:07;;;;;;;9.27;3.53;;;19.40;85.10;;;;;;5029197;28;20041;-67
2023/02/21 14:05:48;;;;;;;4.93;2.50;;;20.40;81.00;;;;;;5018712;28;20030;-70
2023/02/21 14:08:46;;;;;;;3.75;2.05;;;20.00;80.20;;;;;;5026939;28;20042;-70
2023/02/21 14:11:27;;;;;;;5.53;2.53;;;19.50;83.00;;;;;;5002981;28;20516;-71
2023/02/21 14:14:24;;;;;;;4.70;2.45;;;19.40;82.00;;;;;;5010988;28;20095;-70
2023/02/21 14:17:06;;;;;;;7.00;2.35;;;19.20;82.10;;;;;;4996719;28;20037;-70
2023/02/21 14:19:51;;;;;;;3.30;1.67;;;18.80;83.70;;;;;;5024398;28;20104;-71
2023/02/21 14:22:25;;;;;;;8.60;2.22;;;19.20;82.50;;;;;;5014282;28;20017;-71
2023/02/21 14:25:16;;;;;;;6.88;2.85;;;20.20;81.00;;;;;;5011950;28;20489;-70
2023/02/21 14:27:42;;;;;;;10.23;2.33;;;19.40;80.20;;;;;;5011842;28;20542;-70
2023/02/21 14:30:11;;;;;;;3.72;1.80;;;19.40;82.50;;;;;;5025758;28;20051;-71
2023/02/21 14:32:49;;;;;;;5.57;2.22;;;20.60;79.30;;;;;;5027505;28;20037;-70
2023/02/21 14:36:03;;;;;;;7.47;2.85;;;19.30;80.40;;;;;;4991703;28;20073;-71
2023/02/21 14:38:37;;;;;;;4.88;2.13;;;20.10;77.80;;;;;;5022369;28;20037;-70
2023/02/21 14:41:42;;;;;;;5.13;1.95;;;20.00;78.20;;;;;;5013233;28;20062;-71
2023/02/21 14:44:34;;;;;;;5.40;2.72;;;20.90;77.10;;;;;;5027768;28;20033;-70
2023/02/21 14:47:50;;;;;;;5.70;2.55;;;20.00;79.00;;;;;;4995029;28;20053;-71
2023/02/21 14:50:42;;;;;;;4.00;1.90;;;20.20;79.50;;;;;;5012171;28;20564;-71
2023/02/21 14:54:04;;;;;;;12.20;2.75;;;20.30;78.20;;;;;;5029381;28;20037;-71
2023/02/21 14:56:50;;;;;;;5.05;2.30;;;20.10;77.50;;;;;;5018922;28;20025;-70
2023/02/21 14:59:52;;;;;;;5.00;1.80;;;19.10;80.40;;;;;;5027260;28;20042;-70
2023/02/21 15:02:46;;;;;;;4.93;1.88;;;19.30;80.30;;;;;;5031252;28;20080;-70
2023/02/21 15:05:42;;;;;;;2.47;1.27;;;19.20;79.50;;;;;;5024998;28;20452;-69
2023/02/21 15:08:22;;;;;;;15.05;3.00;;;19.30;78.70;;;;;;5023617;28;20128;-70
2023/02/21 15:10:51;;;;;;;8.33;2.23;;;20.40;77.80;;;;;;5008168;28;20030;-70
2023/02/21 15:13:26;;;;;;;6.10;1.60;;;20.00;76.60;;;;;;5004627;28;20575;-70
2023/02/21 15:16:03;;;;;;;4.93;1.90;;;20.80;76.70;;;;;;5024533;28;20038;-70
2023/02/21 15:18:36;;;;;;;4.65;2.08;;;21.50;74.90;;;;;;5029344;28;20404;-70
2023/02/21 15:21:10;;;;;;;4.13;1.70;;;20.00;77.70;;;;;;5005185;28;20041;-70
2023/02/21 15:23:58;;;;;;;6.00;2.35;;;21.40;76.00;;;;;;5027953;28;20366;-69
2023/02/21 15:26:29;;;;;;;8.20;1.48;;;22.50;78.50;;;;;;5017358;28;20036;-72
2023/02/21 15:29:16;;;;;;;8.48;2.55;;;20.90;73.40;;;;;;5014121;28;20388;-71
2023/02/21 15:31:53;;;;;;;5.55;2.00;;;21.90;72.90;;;;;;5023589;28;20067;-74
2023/02/21 15:34:28;;;;;;;3.05;1.45;;;21.30;72.90;;;;;;5006122;28;20085;-70
2023/02/21 15:37:23;;;;;;;11.45;2.15;;;21.20;75.70;;;;;;5003150;28;20044;-70
2023/02/21 15:40:13;;;;;;;6.30;1.80;;;22.30;71.40;;;;;;5004168;28;20064;-69
2023/02/21 15:42:40;;;;;;;9.93;2.58;;;20.60;73.20;;;;;;5026502;28;20034;-72
2023/02/21 15:45:22;;;;;;;7.28;2.05;;;21.20;72.70;;;;;;5011260;28;20409;-72